Time;durP1;ratioP1;P1;durP2;ratioP2;P2;SDS_P1;SDS_P2;PMS_P1;PMS_P2;Temp;Humidity;BMP_temperature;BMP_pressure;BME280_temperature;BME280_humidity;BME280_pressure;Samples;Min_cycle;Max_cycle;Signal;HPM_P1;HPM_P2
2022/12/03 00:02:08;;;;;;;27.67;20.23;;;5.10;99.90;;;;;;5033103;28;20195;-72
2022/12/03 00:04:34;;;;;;;27.90;17.87;;;5.00;99.90;;;;;;5031479;28;20195;-72
2022/12/03 00:06:59;;;;;;;25.27;17.20;;;4.90;99.90;;;;;;5033269;28;20242;-71
2022/12/03 00:09:25;;;;;;;27.37;20.20;;;4.80;99.90;;;;;;5031680;28;20171;-71
2022/12/03 00:11:51;;;;;;;33.60;21.83;;;4.70;99.90;;;;;;5033161;28;20194;-71
2022/12/03 00:14:16;;;;;;;31.77;21.90;;;4.60;99.90;;;;;;5033084;28;20167;-71
2022/12/03 00:16:42;;;;;;;27.37;18.57;;;4.60;99.90;;;;;;5031119;28;20590;-69
2022/12/03 00:19:07;;;;;;;30.20;20.90;;;4.50;99.90;;;;;;5032961;28;20195;-71
2022/12/03 00:21:33;;;;;;;31.70;20.43;;;4.40;99.90;;;;;;5024023;28;20698;-71
2022/12/03 00:23:59;;;;;;;25.90;18.60;;;4.40;99.90;;;;;;5013468;28;20192;-71
2022/12/03 00:26:24;;;;;;;33.43;21.90;;;4.30;99.90;;;;;;5015555;28;20171;-71
2022/12/03 00:28:50;;;;;;;27.77;19.67;;;4.30;99.90;;;;;;5022432;28;20171;-72
2022/12/03 00:31:16;;;;;;;25.67;18.77;;;4.20;99.90;;;;;;4994119;28;20611;-72
2022/12/03 00:33:41;;;;;;;28.93;18.90;;;4.30;99.90;;;;;;4993305;28;20573;-71
2022/12/03 00:36:07;;;;;;;27.17;19.57;;;4.30;99.90;;;;;;4993396;28;20157;-71
2022/12/03 00:38:33;;;;;;;29.13;18.90;;;4.30;99.90;;;;;;4994701;28;20176;-71
2022/12/03 00:40:58;;;;;;;27.97;20.20;;;4.40;99.90;;;;;;4997384;28;20304;-72
2022/12/03 00:43:24;;;;;;;31.03;21.13;;;4.40;99.90;;;;;;4997718;28;20173;-72
2022/12/03 00:45:49;;;;;;;29.63;19.30;;;4.40;99.90;;;;;;4981088;28;20188;-71
2022/12/03 00:48:15;;;;;;;29.40;20.77;;;4.50;99.90;;;;;;4997502;28;20541;-71
2022/12/03 00:50:40;;;;;;;32.40;22.17;;;4.40;99.90;;;;;;4997718;28;20185;-71
2022/12/03 00:53:06;;;;;;;26.00;18.27;;;4.40;99.90;;;;;;4997217;28;20165;-72
2022/12/03 00:55:31;;;;;;;29.23;20.13;;;4.40;99.90;;;;;;4997086;28;20244;-71
2022/12/03 00:57:57;;;;;;;26.23;18.27;;;4.50;99.90;;;;;;5016485;28;20167;-72
2022/12/03 01:00:24;;;;;;;26.03;18.87;;;4.60;99.90;;;;;;5036857;28;20171;-72
2022/12/03 01:02:52;;;;;;;28.90;21.03;;;4.70;99.90;;;;;;5036041;28;20167;-71
2022/12/03 01:05:19;;;;;;;27.07;18.27;;;4.80;99.90;;;;;;5034192;28;20454;-72
2022/12/03 01:07:45;;;;;;;25.83;19.10;;;4.80;99.90;;;;;;5036434;28;20406;-71
2022/12/03 01:10:12;;;;;;;24.73;18.47;;;4.90;99.90;;;;;;5036219;28;20445;-72
2022/12/03 01:12:38;;;;;;;28.67;20.10;;;5.00;99.90;;;;;;5034235;28;20446;-71
2022/12/03 01:15:04;;;;;;;29.10;19.77;;;4.90;99.90;;;;;;5036242;28;20908;-72
2022/12/03 01:17:30;;;;;;;32.67;22.47;;;4.80;99.90;;;;;;5034700;28;20175;-71
2022/12/03 01:19:56;;;;;;;23.83;18.23;;;4.80;99.90;;;;;;5036143;28;20405;-72
2022/12/03 01:22:22;;;;;;;31.37;20.50;;;4.90;99.90;;;;;;5036247;28;20179;-71
2022/12/03 01:24:48;;;;;;;25.60;19.63;;;4.80;99.90;;;;;;5036251;28;20449;-71
2022/12/03 01:27:13;;;;;;;28.60;19.63;;;4.90;99.90;;;;;;5035988;28;20650;-72
2022/12/03 01:29:39;;;;;;;29.77;19.97;;;4.90;99.90;;;;;;5036110;28;20156;-71
2022/12/03 01:32:18;;;;;;;24.00;17.73;;;5.00;99.90;;;;;;5035671;28;20190;-70
2022/12/03 01:34:45;;;;;;;28.63;19.60;;;5.10;99.90;;;;;;5036037;28;20182;-71
2022/12/03 01:37:11;;;;;;;24.47;17.40;;;5.10;99.90;;;;;;5034779;28;20437;-71
2022/12/03 01:39:36;;;;;;;24.97;16.63;;;5.10;99.90;;;;;;5018285;28;20902;-72
2022/12/03 01:42:02;;;;;;;34.70;21.70;;;5.20;99.90;;;;;;5035519;28;20191;-72
2022/12/03 01:44:31;;;;;;;25.53;17.97;;;5.20;99.90;;;;;;5035645;28;20274;-71
2022/12/03 01:47:00;;;;;;;27.47;19.50;;;5.20;99.90;;;;;;5035849;28;20457;-71
2022/12/03 01:49:38;;;;;;;25.67;19.00;;;5.20;99.90;;;;;;5035299;28;20449;-70
2022/12/03 01:52:04;;;;;;;28.53;18.10;;;5.30;99.90;;;;;;5035211;28;20426;-71
2022/12/03 01:54:40;;;;;;;28.80;20.30;;;5.30;99.90;;;;;;5035411;28;20829;-70
2022/12/03 01:57:22;;;;;;;25.63;18.27;;;5.40;99.90;;;;;;5008621;28;20429;-71
2022/12/03 01:59:49;;;;;;;30.13;20.30;;;5.40;99.90;;;;;;5027135;28;20783;-71
2022/12/03 02:02:32;;;;;;;24.03;16.70;;;5.40;99.90;;;;;;5035229;28;20429;-71
2022/12/03 02:04:58;;;;;;;32.60;21.40;;;5.40;99.90;;;;;;5033670;28;20548;-71
2022/12/03 02:07:28;;;;;;;26.57;19.30;;;5.40;99.90;;;;;;5035345;28;20415;-72
2022/12/03 02:09:56;;;;;;;23.03;16.13;;;5.40;99.90;;;;;;5035009;28;20402;-71
2022/12/03 02:12:37;;;;;;;22.40;16.50;;;5.50;99.90;;;;;;5035163;28;20425;-73
2022/12/03 02:15:04;;;;;;;25.37;17.10;;;5.60;99.90;;;;;;5017492;28;20405;-72
2022/12/03 02:17:30;;;;;;;28.57;19.97;;;5.60;99.90;;;;;;5033677;28;20471;-72
2022/12/03 02:19:57;;;;;;;24.03;17.20;;;5.70;99.90;;;;;;5035200;28;20468;-72
2022/12/03 02:22:31;;;;;;;21.27;15.23;;;5.70;99.90;;;;;;5017271;28;20191;-72
2022/12/03 02:25:20;;;;;;;22.97;17.10;;;5.70;99.90;;;;;;5035534;28;20433;-72
2022/12/03 02:27:46;;;;;;;20.77;16.10;;;5.80;99.90;;;;;;5025687;28;20430;-73
2022/12/03 02:30:15;;;;;;;25.77;18.43;;;5.70;99.90;;;;;;4980196;28;20408;-72
2022/12/03 02:32:41;;;;;;;22.50;16.47;;;5.80;99.90;;;;;;4995341;28;20432;-72
2022/12/03 02:35:16;;;;;;;19.33;15.87;;;5.90;99.90;;;;;;4995293;28;20424;-72
2022/12/03 02:37:44;;;;;;;20.60;16.93;;;5.80;99.90;;;;;;4995663;28;20236;-72
2022/12/03 02:40:14;;;;;;;24.93;17.43;;;5.80;99.90;;;;;;4995315;28;20404;-72
2022/12/03 02:42:41;;;;;;;26.10;17.00;;;5.80;99.90;;;;;;4994639;28;20901;-72
2022/12/03 02:45:16;;;;;;;21.23;15.73;;;5.80;99.90;;;;;;4977573;28;20457;-72
2022/12/03 02:47:44;;;;;;;21.87;17.10;;;5.80;99.90;;;;;;4995344;28;20804;-72
2022/12/03 02:50:14;;;;;;;26.93;18.60;;;5.80;99.90;;;;;;4995374;28;20741;-72
2022/12/03 02:52:41;;;;;;;21.10;15.93;;;5.80;99.90;;;;;;4994927;28;20502;-72
2022/12/03 02:55:08;;;;;;;23.20;16.07;;;5.90;99.90;;;;;;4995572;28;20495;-72
2022/12/03 02:57:36;;;;;;;21.40;16.10;;;5.80;99.90;;;;;;4997170;28;20419;-73
2022/12/03 03:00:04;;;;;;;22.90;16.13;;;5.90;99.90;;;;;;5014797;28;20890;-74
2022/12/03 03:02:30;;;;;;;25.30;18.37;;;5.90;99.90;;;;;;5019605;28;20968;-71
2022/12/03 03:04:55;;;;;;;23.27;17.57;;;6.00;99.90;;;;;;5034019;28;20451;-73
2022/12/03 03:07:21;;;;;;;19.83;16.27;;;6.00;99.90;;;;;;5034194;28;20168;-72
2022/12/03 03:09:47;;;;;;;24.30;17.90;;;6.10;99.90;;;;;;5034150;28;20747;-72
2022/12/03 03:12:13;;;;;;;21.47;16.37;;;6.10;99.90;;;;;;5033878;28;20422;-71
2022/12/03 03:14:38;;;;;;;24.77;17.97;;;6.00;99.90;;;;;;5032415;28;20546;-72
2022/12/03 03:17:04;;;;;;;21.30;14.80;;;6.00;99.90;;;;;;5033981;28;20259;-71
2022/12/03 03:19:30;;;;;;;20.37;16.27;;;6.10;99.90;;;;;;5032776;28;20175;-70
2022/12/03 03:21:56;;;;;;;22.57;17.40;;;6.10;99.90;;;;;;5033943;28;20426;-72
2022/12/03 03:24:22;;;;;;;22.33;16.47;;;6.00;99.90;;;;;;5033973;28;20199;-71
2022/12/03 03:26:49;;;;;;;24.67;15.97;;;6.10;99.90;;;;;;5034148;28;20403;-73
2022/12/03 03:29:15;;;;;;;19.00;15.17;;;6.00;99.90;;;;;;5033501;28;20403;-72
2022/12/03 03:31:42;;;;;;;20.67;16.90;;;6.00;99.90;;;;;;5032256;28;20504;-71
2022/12/03 03:34:08;;;;;;;19.30;14.90;;;6.10;99.90;;;;;;5033497;28;20461;-71
2022/12/03 03:36:34;;;;;;;21.73;16.60;;;6.10;99.90;;;;;;5033682;28;20410;-71
2022/12/03 03:39:00;;;;;;;21.07;16.00;;;6.10;99.90;;;;;;5031851;28;20855;-71
2022/12/03 03:41:27;;;;;;;20.87;16.80;;;6.20;99.90;;;;;;5033676;28;20477;-72
2022/12/03 03:43:52;;;;;;;23.37;17.03;;;6.20;99.90;;;;;;5033808;28;20170;-71
2022/12/03 03:46:19;;;;;;;24.37;17.33;;;6.20;99.90;;;;;;5032370;28;20476;-71
2022/12/03 03:48:47;;;;;;;20.90;16.27;;;6.10;99.90;;;;;;5033775;28;20155;-71
2022/12/03 03:51:14;;;;;;;22.20;15.90;;;6.10;99.90;;;;;;5033633;28;20767;-71
2022/12/03 03:53:42;;;;;;;21.90;17.50;;;6.00;99.90;;;;;;5015425;28;20406;-72
2022/12/03 03:56:09;;;;;;;25.23;17.93;;;6.00;99.90;;;;;;5033450;28;20417;-72
2022/12/03 03:58:35;;;;;;;20.77;15.50;;;6.00;99.90;;;;;;5031615;28;20418;-71
2022/12/03 04:01:01;;;;;;;20.37;15.53;;;5.90;99.90;;;;;;5033070;28;20427;-71
2022/12/03 04:03:28;;;;;;;24.20;17.40;;;6.00;99.90;;;;;;5033524;28;20408;-72
2022/12/03 04:05:54;;;;;;;22.03;17.53;;;6.10;99.90;;;;;;5013864;28;20568;-73
2022/12/03 04:08:19;;;;;;;22.20;17.23;;;6.10;99.90;;;;;;5033710;28;20410;-73
2022/12/03 04:13:29;;;;;;;23.53;16.17;;;6.10;99.90;;;;;;5032025;28;20199;-72
2022/12/03 04:15:54;;;;;;;23.43;16.43;;;6.10;99.90;;;;;;5033155;28;20440;-72
2022/12/03 04:23:48;;;;;;;19.33;15.33;;;6.10;99.90;;;;;;5032488;28;20391;-71
2022/12/03 04:28:58;;;;;;;20.67;16.20;;;6.10;99.90;;;;;;5023160;28;20180;-72
2022/12/03 04:36:53;;;;;;;24.20;18.93;;;6.10;99.90;;;;;;5013675;28;20386;-72
2022/12/03 04:39:19;;;;;;;18.30;15.33;;;6.00;99.90;;;;;;5029268;28;20930;-71
2022/12/03 04:41:44;;;;;;;19.00;15.17;;;6.00;99.90;;;;;;5032799;28;20268;-70
2022/12/03 04:46:54;;;;;;;21.10;15.03;;;6.10;99.90;;;;;;5033170;28;20652;-72
2022/12/03 04:49:19;;;;;;;22.70;15.53;;;6.10;99.90;;;;;;5032729;28;20407;-72
2022/12/03 04:51:45;;;;;;;22.00;16.07;;;6.10;99.90;;;;;;5032751;28;20195;-72
2022/12/03 04:54:10;;;;;;;24.60;17.27;;;6.10;99.90;;;;;;5032268;28;20176;-72
2022/12/03 04:56:36;;;;;;;18.63;15.90;;;6.20;99.90;;;;;;5032833;28;20667;-72
2022/12/03 04:59:02;;;;;;;20.30;15.17;;;6.30;99.90;;;;;;5033110;28;20656;-72
2022/12/03 05:01:27;;;;;;;19.73;15.80;;;6.30;99.90;;;;;;5032848;28;20211;-72
2022/12/03 05:03:53;;;;;;;21.57;16.30;;;6.40;99.90;;;;;;5031014;28;20271;-73
2022/12/03 05:06:18;;;;;;;22.00;16.83;;;6.30;99.90;;;;;;5032593;28;20165;-72
2022/12/03 05:08:44;;;;;;;25.90;18.67;;;6.30;99.90;;;;;;5032447;28;20226;-72
2022/12/03 05:11:09;;;;;;;21.70;16.63;;;6.30;99.90;;;;;;5031224;28;20260;-72
2022/12/03 05:13:35;;;;;;;19.27;15.20;;;6.30;99.90;;;;;;5031809;28;20176;-72
2022/12/03 05:16:01;;;;;;;26.10;18.20;;;6.30;99.90;;;;;;5032430;28;20184;-72
2022/12/03 05:18:26;;;;;;;25.87;18.17;;;6.20;99.90;;;;;;5030765;28;20216;-72
2022/12/03 05:20:52;;;;;;;26.63;18.00;;;6.00;99.90;;;;;;5032277;28;20254;-72
2022/12/03 05:23:17;;;;;;;24.83;18.70;;;6.00;99.90;;;;;;5032336;28;20707;-72
2022/12/03 05:25:43;;;;;;;30.30;19.10;;;6.00;99.90;;;;;;5035203;28;20192;-72
2022/12/03 05:28:08;;;;;;;22.40;16.37;;;6.10;99.90;;;;;;5035660;28;20282;-72
2022/12/03 05:30:34;;;;;;;26.53;17.93;;;6.10;99.90;;;;;;5035875;28;20247;-72
2022/12/03 05:33:00;;;;;;;24.73;18.10;;;6.10;99.90;;;;;;5035533;28;20161;-72
2022/12/03 05:35:26;;;;;;;19.90;15.37;;;6.10;99.90;;;;;;5036108;28;20153;-71
2022/12/03 05:37:51;;;;;;;26.37;18.00;;;6.10;99.90;;;;;;5035824;28;20195;-72
2022/12/03 05:40:17;;;;;;;26.03;18.70;;;6.10;99.90;;;;;;5035992;28;20493;-72
2022/12/03 05:43:00;;;;;;;25.90;18.43;;;5.90;99.90;;;;;;5035396;28;20188;-71
2022/12/03 05:45:34;;;;;;;21.87;17.70;;;5.70;99.90;;;;;;5035975;28;20182;-72
2022/12/03 05:48:01;;;;;;;21.43;16.13;;;5.60;99.90;;;;;;5035413;28;20434;-71
2022/12/03 05:50:29;;;;;;;21.43;15.10;;;5.80;99.90;;;;;;5035883;28;20467;-73
2022/12/03 05:52:55;;;;;;;27.30;19.50;;;5.90;99.90;;;;;;5035531;28;20406;-72
2022/12/03 05:55:20;;;;;;;23.30;17.57;;;6.00;99.90;;;;;;5035351;28;20417;-71
2022/12/03 05:57:46;;;;;;;22.10;18.80;;;6.10;99.90;;;;;;5033888;28;20422;-72
2022/12/03 06:00:36;;;;;;;22.77;17.63;;;6.10;99.90;;;;;;5035303;28;20210;-72
2022/12/03 06:03:03;;;;;;;20.40;15.67;;;6.10;99.90;;;;;;5035511;28;20387;-72
2022/12/03 06:05:29;;;;;;;26.20;18.40;;;6.00;99.90;;;;;;5033809;28;20446;-72
2022/12/03 06:07:54;;;;;;;23.20;18.50;;;5.90;99.90;;;;;;5034950;28;20400;-72
2022/12/03 06:10:24;;;;;;;23.70;18.00;;;6.10;99.90;;;;;;5035613;28;20161;-72
2022/12/03 06:12:49;;;;;;;24.30;18.43;;;6.00;99.90;;;;;;5035244;28;20258;-71
2022/12/03 06:15:16;;;;;;;24.90;18.17;;;5.90;99.90;;;;;;5035196;28;20478;-71
2022/12/03 06:17:42;;;;;;;26.57;20.37;;;5.70;99.90;;;;;;5033766;28;20176;-71
2022/12/03 06:20:12;;;;;;;25.40;18.00;;;5.70;99.90;;;;;;5017676;28;20449;-71
2022/12/03 06:22:38;;;;;;;24.00;17.40;;;5.80;99.90;;;;;;5034895;28;20239;-72
2022/12/03 06:25:04;;;;;;;23.47;17.40;;;5.90;99.90;;;;;;5034976;28;20442;-71
2022/12/03 06:27:29;;;;;;;21.10;16.20;;;5.80;99.90;;;;;;5030565;28;20260;-73
2022/12/03 06:29:55;;;;;;;21.13;16.27;;;6.00;99.90;;;;;;4996939;28;20432;-73
2022/12/03 06:32:20;;;;;;;25.77;19.13;;;6.10;99.90;;;;;;4995646;28;20195;-72
2022/12/03 06:34:46;;;;;;;22.00;16.73;;;6.20;99.90;;;;;;4998249;28;20192;-71
2022/12/03 06:37:12;;;;;;;23.10;17.30;;;6.30;99.90;;;;;;4995493;28;20178;-72
2022/12/03 06:39:37;;;;;;;25.70;18.37;;;6.30;99.90;;;;;;5011244;28;20652;-72
2022/12/03 06:42:03;;;;;;;21.83;17.27;;;6.10;99.90;;;;;;5034580;28;20194;-72
2022/12/03 06:44:28;;;;;;;25.17;18.47;;;6.00;99.90;;;;;;5035289;28;20222;-71
2022/12/03 06:46:54;;;;;;;24.27;17.70;;;6.10;99.90;;;;;;5032583;28;20177;-71
2022/12/03 06:49:19;;;;;;;24.93;19.50;;;6.20;99.90;;;;;;5034356;28;20171;-71
2022/12/03 06:51:45;;;;;;;24.63;18.90;;;6.30;99.90;;;;;;5032795;28;20794;-71
2022/12/03 06:54:11;;;;;;;22.20;17.00;;;6.30;99.90;;;;;;5034390;28;20505;-70
2022/12/03 06:56:36;;;;;;;22.33;16.97;;;6.40;99.90;;;;;;5034497;28;20220;-72
2022/12/03 06:59:02;;;;;;;22.17;18.40;;;6.20;99.90;;;;;;5032553;28;20642;-72
2022/12/03 07:01:28;;;;;;;20.50;16.20;;;6.20;99.90;;;;;;5034281;28;20185;-72
2022/12/03 07:03:53;;;;;;;26.03;19.43;;;6.20;99.90;;;;;;5032666;28;20181;-71
2022/12/03 07:06:19;;;;;;;25.13;18.13;;;6.20;99.90;;;;;;5034415;28;20403;-72
2022/12/03 07:08:44;;;;;;;19.40;16.40;;;6.00;99.90;;;;;;5034115;28;20195;-72
2022/12/03 07:11:31;;;;;;;24.37;17.60;;;6.00;99.90;;;;;;5033982;28;20330;-71
2022/12/03 07:13:57;;;;;;;24.57;18.17;;;6.00;99.90;;;;;;5033740;28;20179;-72
2022/12/03 07:16:22;;;;;;;23.37;16.67;;;5.90;99.90;;;;;;5034013;28;20407;-71
2022/12/03 07:18:48;;;;;;;23.23;16.90;;;5.70;99.90;;;;;;5015723;28;20989;-71
2022/12/03 07:21:14;;;;;;;22.73;19.07;;;5.70;99.90;;;;;;5033987;28;20191;-70
2022/12/03 07:23:39;;;;;;;22.73;16.97;;;5.80;99.90;;;;;;5033959;28;20222;-71
2022/12/03 07:26:05;;;;;;;23.27;17.87;;;5.80;99.90;;;;;;5033692;28;20203;-71
2022/12/03 07:28:30;;;;;;;26.33;19.43;;;6.00;99.90;;;;;;5016164;28;20259;-71
2022/12/03 07:30:56;;;;;;;26.83;19.23;;;6.10;99.90;;;;;;5033906;28;20189;-72
2022/12/03 07:33:21;;;;;;;26.43;20.07;;;6.10;99.90;;;;;;5032865;28;20184;-73
2022/12/03 07:35:47;;;;;;;27.70;18.13;;;5.80;99.90;;;;;;5033954;28;20305;-71
2022/12/03 07:38:13;;;;;;;26.43;17.17;;;6.00;99.90;;;;;;5033416;28;20160;-72
2022/12/03 07:40:38;;;;;;;25.50;17.33;;;5.80;99.90;;;;;;5033620;28;20238;-71
2022/12/03 07:43:04;;;;;;;27.23;19.83;;;5.80;99.90;;;;;;5033406;28;20184;-71
2022/12/03 07:45:29;;;;;;;26.97;18.17;;;5.90;99.90;;;;;;5033542;28;20526;-70
2022/12/03 07:47:55;;;;;;;24.23;18.40;;;6.00;99.90;;;;;;5032375;28;20159;-69
2022/12/03 07:50:20;;;;;;;25.37;18.10;;;6.20;99.90;;;;;;5015470;28;20179;-72
2022/12/03 07:52:46;;;;;;;25.33;18.43;;;6.20;99.90;;;;;;5033192;28;20192;-71
2022/12/03 07:55:12;;;;;;;26.57;20.17;;;6.30;99.90;;;;;;5033236;28;20636;-71
2022/12/03 07:57:38;;;;;;;29.77;20.43;;;6.40;99.90;;;;;;5033246;28;20610;-72
2022/12/03 08:00:05;;;;;;;26.60;19.20;;;6.40;99.90;;;;;;5033497;28;20415;-69
2022/12/03 08:02:31;;;;;;;32.13;22.03;;;6.40;99.90;;;;;;5032915;28;20419;-71
2022/12/03 08:04:56;;;;;;;31.60;22.10;;;6.00;99.90;;;;;;5032434;28;20458;-71
2022/12/03 08:07:22;;;;;;;28.03;19.80;;;5.90;99.90;;;;;;5033062;28;20194;-70
2022/12/03 08:09:49;;;;;;;29.60;19.70;;;6.00;99.90;;;;;;5031284;28;20659;-71
2022/12/03 08:12:18;;;;;;;29.07;20.37;;;6.00;99.90;;;;;;5033118;28;20270;-72
2022/12/03 08:14:43;;;;;;;25.30;19.13;;;5.90;99.90;;;;;;5033418;28;20927;-71
2022/12/03 08:17:11;;;;;;;32.43;21.07;;;5.70;99.90;;;;;;5031510;28;20431;-72
2022/12/03 08:19:37;;;;;;;27.47;19.10;;;5.70;99.90;;;;;;5033032;28;20259;-72
2022/12/03 08:22:11;;;;;;;29.67;20.37;;;5.80;99.90;;;;;;5031802;28;20524;-71
2022/12/03 08:24:37;;;;;;;27.70;20.37;;;5.90;99.90;;;;;;5032701;28;20261;-71
2022/12/03 08:27:12;;;;;;;31.90;22.10;;;6.00;99.90;;;;;;5033000;28;20838;-72
2022/12/03 08:29:37;;;;;;;34.00;22.30;;;6.10;99.90;;;;;;5032575;28;20149;-71
2022/12/03 08:32:08;;;;;;;29.50;19.93;;;5.90;99.90;;;;;;5033251;28;20512;-67
2022/12/03 08:34:39;;;;;;;25.97;18.77;;;5.80;99.90;;;;;;5023472;28;20567;-71
2022/12/03 08:37:17;;;;;;;22.90;17.60;;;5.90;99.90;;;;;;5005764;28;20395;-70
2022/12/03 08:39:47;;;;;;;31.87;20.43;;;5.90;99.90;;;;;;4993315;28;20411;-71
2022/12/03 08:45:38;;;;;;;28.03;18.70;;;5.90;99.90;;;;;;4993439;28;20506;-71
2022/12/03 08:48:26;;;;;;;28.50;20.13;;;5.80;99.90;;;;;;4993639;28;20394;-71
2022/12/03 08:50:56;;;;;;;27.80;20.43;;;5.80;99.90;;;;;;4994966;28;20423;-71
2022/12/03 08:53:34;;;;;;;28.43;19.90;;;5.90;99.90;;;;;;5012905;28;20415;-70
2022/12/03 08:56:14;;;;;;;42.20;29.40;;;5.70;99.90;;;;;;5013007;28;20462;-71
2022/12/03 08:58:42;;;;;;;30.87;20.97;;;5.80;99.90;;;;;;5023641;28;20429;-71
2022/12/03 09:01:11;;;;;;;30.73;20.53;;;5.90;99.90;;;;;;5036408;28;20421;-71
2022/12/03 09:03:50;;;;;;;28.87;20.40;;;5.70;99.90;;;;;;5018824;28;20565;-71
2022/12/03 09:06:16;;;;;;;25.23;18.67;;;5.50;99.90;;;;;;5034618;28;20489;-72
2022/12/03 09:08:41;;;;;;;31.37;19.23;;;5.60;99.90;;;;;;5036295;28;20435;-71
2022/12/03 09:11:07;;;;;;;30.80;19.97;;;5.70;99.90;;;;;;5036387;28;20188;-73
2022/12/03 09:13:32;;;;;;;31.87;22.00;;;5.60;99.90;;;;;;5034720;28;20708;-71
2022/12/03 09:15:58;;;;;;;29.40;20.10;;;5.70;99.90;;;;;;5036757;28;20552;-70
2022/12/03 09:18:24;;;;;;;29.53;21.80;;;5.50;99.90;;;;;;5036063;28;20218;-72
2022/12/03 09:20:49;;;;;;;29.97;20.00;;;5.60;99.90;;;;;;5018451;28;20207;-71
2022/12/03 09:23:15;;;;;;;31.73;21.50;;;5.50;99.90;;;;;;5036174;28;20286;-72
2022/12/03 09:25:40;;;;;;;31.67;19.80;;;5.50;99.90;;;;;;5036190;28;20193;-72
2022/12/03 09:28:06;;;;;;;30.43;19.97;;;5.60;99.90;;;;;;5035854;28;20191;-72
2022/12/03 09:30:32;;;;;;;32.87;22.43;;;5.60;99.90;;;;;;5034001;28;20258;-72
2022/12/03 09:32:58;;;;;;;34.40;21.57;;;5.30;99.90;;;;;;5035887;28;20167;-71
2022/12/03 09:35:25;;;;;;;31.47;21.73;;;5.30;99.90;;;;;;5034789;28;20477;-72
2022/12/03 09:37:50;;;;;;;29.63;20.10;;;5.40;99.90;;;;;;5036005;28;21022;-71
2022/12/03 09:40:16;;;;;;;31.97;21.57;;;5.40;99.90;;;;;;5034603;28;20431;-72
2022/12/03 09:42:42;;;;;;;28.97;18.80;;;5.30;99.90;;;;;;5035768;28;20219;-72
2022/12/03 09:45:11;;;;;;;28.10;18.40;;;5.20;99.90;;;;;;5034270;28;20488;-72
2022/12/03 09:47:39;;;;;;;31.33;20.60;;;5.40;99.90;;;;;;5035465;28;20168;-72
2022/12/03 09:50:05;;;;;;;29.10;20.57;;;5.50;99.90;;;;;;5034686;28;20509;-71
2022/12/03 09:52:33;;;;;;;28.40;19.80;;;5.40;99.90;;;;;;5035710;28;20427;-72
2022/12/03 09:55:04;;;;;;;28.63;20.63;;;5.60;99.90;;;;;;5035227;28;20468;-72
2022/12/03 09:57:30;;;;;;;33.17;21.87;;;5.70;99.90;;;;;;5034051;28;20422;-72
2022/12/03 09:59:56;;;;;;;27.40;18.90;;;5.60;99.90;;;;;;5034630;28;20461;-71
2022/12/03 10:02:28;;;;;;;27.10;18.03;;;5.50;99.90;;;;;;5035301;28;20842;-72
2022/12/03 10:04:54;;;;;;;26.10;17.20;;;5.50;99.90;;;;;;5017834;28;20814;-71
2022/12/03 10:07:20;;;;;;;28.10;18.30;;;5.60;99.90;;;;;;5034978;28;20439;-71
2022/12/03 10:09:46;;;;;;;24.20;16.50;;;5.90;99.90;;;;;;5033808;28;20480;-71
2022/12/03 10:12:13;;;;;;;26.53;17.93;;;5.80;99.90;;;;;;5035049;28;20187;-71
2022/12/03 10:14:40;;;;;;;23.60;16.97;;;5.70;99.90;;;;;;5033736;28;20183;-71
2022/12/03 10:17:06;;;;;;;25.27;16.50;;;5.70;99.90;;;;;;5035239;28;20403;-71
2022/12/03 10:19:34;;;;;;;25.43;17.80;;;5.70;99.90;;;;;;5017445;28;20779;-71
2022/12/03 10:22:00;;;;;;;21.47;15.47;;;5.70;99.90;;;;;;5034994;28;20426;-70
2022/12/03 10:24:30;;;;;;;23.40;15.93;;;5.90;99.90;;;;;;5034877;28;20445;-71
2022/12/03 10:26:58;;;;;;;22.07;16.33;;;5.90;99.90;;;;;;5017069;28;20408;-71
2022/12/03 10:29:32;;;;;;;23.93;16.23;;;5.70;99.90;;;;;;5033060;28;20414;-71
2022/12/03 10:32:00;;;;;;;25.30;16.10;;;5.80;99.90;;;;;;5034862;28;20522;-70
2022/12/03 10:34:30;;;;;;;23.43;16.43;;;5.60;99.90;;;;;;5033276;28;20522;-71
2022/12/03 10:37:17;;;;;;;27.90;17.80;;;5.40;99.90;;;;;;5016767;28;20470;-70
2022/12/03 10:39:59;;;;;;;25.70;17.80;;;5.10;99.90;;;;;;5006864;28;20418;-70
2022/12/03 10:42:28;;;;;;;23.70;16.53;;;5.10;99.90;;;;;;5011874;28;20430;-70
2022/12/03 10:45:23;;;;;;;20.90;15.70;;;5.30;99.90;;;;;;5014274;28;20501;-71
2022/12/03 10:48:13;;;;;;;25.90;17.73;;;5.40;99.90;;;;;;5006866;28;20426;-71
2022/12/03 10:50:52;;;;;;;24.10;18.23;;;5.30;99.90;;;;;;5034778;28;20499;-71
2022/12/03 10:53:20;;;;;;;30.90;18.03;;;5.50;99.90;;;;;;5034733;28;20414;-70
2022/12/03 10:55:47;;;;;;;26.67;18.50;;;5.60;99.90;;;;;;5032492;28;20426;-71
2022/12/03 10:58:22;;;;;;;23.33;17.13;;;5.60;99.90;;;;;;5028382;28;20475;-71
2022/12/03 11:00:49;;;;;;;22.70;16.80;;;5.60;99.90;;;;;;4995296;28;20485;-70
2022/12/03 11:03:18;;;;;;;24.13;17.10;;;5.50;99.90;;;;;;5033715;28;20420;-71
2022/12/03 11:05:43;;;;;;;21.90;16.80;;;5.50;99.90;;;;;;5014333;28;20453;-71
2022/12/03 11:08:18;;;;;;;24.10;17.43;;;5.40;99.90;;;;;;5031396;28;20418;-72
2022/12/03 11:10:43;;;;;;;22.07;15.77;;;5.50;99.90;;;;;;5034205;28;20270;-71
2022/12/03 11:13:29;;;;;;;24.43;18.23;;;5.70;99.90;;;;;;5014775;28;20506;-71
2022/12/03 11:15:56;;;;;;;23.83;16.03;;;5.50;99.90;;;;;;5032697;28;20176;-71
2022/12/03 11:18:41;;;;;;;24.63;16.73;;;5.30;99.90;;;;;;5034247;28;20418;-71
2022/12/03 11:21:10;;;;;;;21.57;16.17;;;5.30;99.90;;;;;;4981051;28;20474;-71
2022/12/03 11:23:44;;;;;;;25.77;17.37;;;5.50;99.90;;;;;;5033204;28;20411;-71
2022/12/03 11:26:36;;;;;;;22.27;15.73;;;5.60;99.90;;;;;;5032347;28;20449;-71
2022/12/03 11:29:03;;;;;;;22.83;16.47;;;5.50;99.90;;;;;;4988137;28;20410;-70
2022/12/03 11:31:32;;;;;;;23.13;15.90;;;5.60;99.90;;;;;;5033761;28;20438;-72
2022/12/03 11:34:17;;;;;;;21.63;14.80;;;5.50;99.90;;;;;;5034083;28;20430;-72
2022/12/03 11:37:10;;;;;;;24.70;16.67;;;5.40;99.90;;;;;;5016396;28;20478;-71
2022/12/03 11:39:51;;;;;;;28.50;17.60;;;5.20;99.90;;;;;;5014735;28;20395;-72
2022/12/03 11:42:25;;;;;;;22.23;15.63;;;5.10;99.90;;;;;;5014151;28;20423;-72
2022/12/03 11:45:36;;;;;;;21.70;16.20;;;5.20;99.90;;;;;;5013909;28;20969;-71
2022/12/03 11:48:09;;;;;;;22.60;14.73;;;5.10;99.90;;;;;;4987795;28;20475;-71
2022/12/03 11:50:40;;;;;;;24.00;16.13;;;4.90;99.90;;;;;;5023146;28;20414;-70
2022/12/03 11:53:19;;;;;;;26.07;17.03;;;4.90;99.90;;;;;;5019005;28;20914;-71
2022/12/03 11:56:05;;;;;;;23.17;16.13;;;5.00;99.90;;;;;;5034744;28;20426;-71
2022/12/03 11:58:31;;;;;;;21.83;16.70;;;5.20;99.90;;;;;;5035168;28;20393;-72
2022/12/03 12:01:01;;;;;;;24.50;16.07;;;5.20;99.90;;;;;;5035105;28;20431;-72
2022/12/03 12:03:46;;;;;;;22.50;15.30;;;5.10;99.90;;;;;;5034827;28;20402;-71
2022/12/03 12:06:14;;;;;;;18.43;14.00;;;5.10;99.90;;;;;;5033796;28;20445;-71
2022/12/03 12:08:50;;;;;;;24.00;16.43;;;5.20;99.90;;;;;;5016528;28;20413;-71
2022/12/03 12:11:20;;;;;;;23.80;17.33;;;5.30;99.90;;;;;;5034486;28;20425;-72
2022/12/03 12:13:49;;;;;;;23.13;17.07;;;5.40;99.90;;;;;;5033717;28;20936;-70
2022/12/03 12:16:39;;;;;;;23.33;16.37;;;5.60;99.90;;;;;;5032356;28;20501;-72
2022/12/03 12:19:41;;;;;;;19.50;14.07;;;5.50;99.90;;;;;;5035708;28;20451;-69
2022/12/03 12:22:25;;;;;;;20.47;14.17;;;5.40;99.90;;;;;;5019160;28;20484;-71
2022/12/03 12:24:51;;;;;;;19.80;13.60;;;5.60;99.90;;;;;;5034433;28;20830;-71
2022/12/03 12:27:35;;;;;;;23.40;15.07;;;5.30;99.90;;;;;;5037155;28;20976;-71
2022/12/03 12:30:02;;;;;;;20.60;14.70;;;4.90;99.90;;;;;;5031021;28;20925;-72
2022/12/03 12:32:30;;;;;;;24.27;15.97;;;5.10;99.90;;;;;;5012822;28;20477;-72
2022/12/03 12:35:20;;;;;;;28.93;17.77;;;5.40;99.90;;;;;;5017067;28;20424;-70
2022/12/03 12:37:54;;;;;;;19.93;14.53;;;5.20;99.90;;;;;;4980762;28;20466;-70
2022/12/03 12:40:25;;;;;;;20.67;13.90;;;5.00;99.90;;;;;;4997303;28;20809;-70
2022/12/03 12:42:57;;;;;;;23.90;16.60;;;4.60;99.90;;;;;;4998693;28;20404;-71
2022/12/03 12:45:25;;;;;;;22.40;15.70;;;4.50;99.90;;;;;;5015272;28;20445;-71
2022/12/03 12:48:23;;;;;;;26.10;17.70;;;4.70;99.90;;;;;;4991791;28;20415;-70
2022/12/03 12:51:10;;;;;;;23.83;16.30;;;4.80;99.90;;;;;;4997455;28;20431;-70
2022/12/03 12:53:37;;;;;;;26.60;16.40;;;4.80;99.90;;;;;;4998206;28;20438;-71
2022/12/03 12:56:25;;;;;;;25.87;17.20;;;4.90;99.90;;;;;;4997349;28;20931;-70
2022/12/03 12:58:52;;;;;;;24.63;15.47;;;5.00;99.90;;;;;;4997620;28;20460;-70
2022/12/03 13:01:27;;;;;;;21.30;14.97;;;5.10;99.90;;;;;;4997168;28;20954;-71
2022/12/03 13:03:53;;;;;;;18.60;14.10;;;5.10;99.90;;;;;;4996800;28;20373;-71
2022/12/03 13:06:24;;;;;;;22.43;14.60;;;5.20;99.90;;;;;;4997276;28;20449;-70
2022/12/03 13:08:50;;;;;;;22.40;15.57;;;5.10;99.90;;;;;;4997554;28;20200;-70